createdAt,value
2019-02-26T00:00:32.362Z,65.55
2019-02-26T00:03:04.719Z,65.80
2019-02-26T00:05:35.285Z,65.87
2019-02-26T00:08:05.743Z,66.24
2019-02-26T00:10:38.835Z,66.35
2019-02-26T00:13:09.364Z,66.58
2019-02-26T00:15:40.535Z,66.72
2019-02-26T00:18:13.959Z,66.95
2019-02-26T00:20:45.155Z,67.06
2019-02-26T00:23:15.627Z,67.50
2019-02-26T00:25:46.042Z,67.60
2019-02-26T00:28:17.672Z,67.88
2019-02-26T00:30:48.616Z,68.12
2019-02-26T00:33:22.307Z,68.51
2019-02-26T00:35:51.262Z,68.80
2019-02-26T00:38:21.725Z,69.04
2019-02-26T00:40:52.083Z,69.29
2019-02-26T00:43:25.317Z,69.50
2019-02-26T00:45:56.008Z,69.96
2019-02-26T00:48:26.968Z,70.10
2019-02-26T00:50:59.446Z,70.17
2019-02-26T00:53:30.641Z,70.16
2019-02-26T00:56:03.257Z,70.06
2019-02-26T00:58:37.069Z,70.50
2019-02-26T01:01:08.239Z,70.44
2019-02-26T01:04:09.291Z,70.43
2019-02-26T01:06:46.901Z,70.46
2019-02-26T01:09:17.614Z,70.72
2019-02-26T01:11:49.747Z,71.04
2019-02-26T01:14:20.778Z,71.06
2019-02-26T01:16:52.420Z,71.05
2019-02-26T01:19:22.875Z,71.19
2019-02-26T01:21:53.373Z,71.37
2019-02-26T01:24:25.846Z,71.54
2019-02-26T01:26:56.037Z,71.62
2019-02-26T01:29:27.797Z,71.83
2019-02-26T01:31:58.478Z,71.81
2019-02-26T01:34:28.936Z,71.81
2019-02-26T01:37:00.923Z,71.90
2019-02-26T01:39:31.711Z,72.15
2019-02-26T01:42:02.132Z,72.12
2019-02-26T01:44:35.028Z,72.26
2019-02-26T01:47:05.695Z,72.35
2019-02-26T01:49:36.168Z,72.54
2019-02-26T01:52:08.264Z,72.61
2019-02-26T01:54:39.707Z,72.87
2019-02-26T01:57:10.132Z,72.93
2019-02-26T01:59:40.664Z,73.05
2019-02-26T02:02:14.689Z,73.05
2019-02-26T02:04:43.539Z,73.09
2019-02-26T02:07:14.036Z,73.14
2019-02-26T02:09:46.669Z,73.10
2019-02-26T02:12:16.604Z,73.24
2019-02-26T02:14:47.063Z,73.23
2019-02-26T02:17:18.606Z,73.29
2019-02-26T02:19:49.058Z,73.51
2019-02-26T02:22:21.245Z,73.59
2019-02-26T02:24:54.003Z,74.07
2019-02-26T02:27:26.833Z,73.93
2019-02-26T02:29:57.773Z,74.08
2019-02-26T02:32:29.826Z,73.95
2019-02-26T02:35:03.813Z,74.17
2019-02-26T02:37:32.780Z,74.51
2019-02-26T02:40:03.318Z,74.62
2019-02-26T02:42:35.018Z,74.91
2019-02-26T02:45:11.336Z,75.17
2019-02-26T02:47:40.794Z,75.42
2019-02-26T02:50:18.357Z,75.47
2019-02-26T02:52:50.886Z,75.62
2019-02-26T02:55:21.238Z,75.54
2019-02-26T02:57:53.102Z,75.74
2019-02-26T03:00:26.536Z,75.85
2019-02-26T03:02:58.299Z,75.65
2019-02-26T03:05:31.292Z,75.65
2019-02-26T03:08:00.530Z,75.56
2019-02-26T03:10:34.107Z,75.51
2019-02-26T03:13:03.341Z,75.74
2019-02-26T03:15:35.874Z,75.76
2019-02-26T03:18:08.578Z,75.75
2019-02-26T03:20:40.220Z,75.77
2019-02-26T03:23:15.087Z,75.84
2019-02-26T03:25:44.533Z,76.20
2019-02-26T03:28:14.495Z,76.40
2019-02-26T03:30:44.984Z,76.52
2019-02-26T03:33:15.406Z,76.53
2019-02-26T03:35:45.860Z,76.75
2019-02-26T03:38:18.104Z,77.03
2019-02-26T03:40:49.308Z,77.08
2019-02-26T03:43:20.682Z,77.30
2019-02-26T03:45:51.161Z,77.27
2019-02-26T03:48:21.664Z,77.70
2019-02-26T03:50:52.138Z,77.90
2019-02-26T03:53:25.504Z,77.71
2019-02-26T03:55:59.575Z,77.42
2019-02-26T03:58:26.937Z,77.12
2019-02-26T04:01:01.742Z,77.00
2019-02-26T04:03:32.140Z,76.83
2019-02-26T04:06:03.849Z,76.71
2019-02-26T04:08:34.859Z,76.79
2019-02-26T04:11:05.249Z,76.73
2019-02-26T04:13:35.682Z,76.70
2019-02-26T04:16:06.164Z,76.71
2019-02-26T04:18:36.868Z,76.63
2019-02-26T04:21:09.474Z,76.70
2019-02-26T04:23:41.564Z,76.77
2019-02-26T04:26:18.522Z,76.76
2019-02-26T04:28:53.446Z,76.91
2019-02-26T04:31:33.136Z,76.90
2019-02-26T04:34:08.492Z,76.95
2019-02-26T04:36:47.149Z,77.20
2019-02-26T04:39:44.317Z,77.37
2019-02-26T04:42:18.169Z,77.43
2019-02-26T04:45:09.659Z,77.55
2019-02-26T04:47:45.930Z,77.78
2019-02-26T04:50:15.679Z,78.07
2019-02-26T04:52:46.151Z,78.16
2019-02-26T04:55:16.575Z,78.24
2019-02-26T04:57:49.095Z,78.29
2019-02-26T05:00:19.176Z,78.24
2019-02-26T05:02:49.708Z,78.35
2019-02-26T05:05:22.453Z,78.32
2019-02-26T05:07:52.360Z,78.26
2019-02-26T05:10:24.343Z,78.11
2019-02-26T05:12:57.237Z,78.05
2019-02-26T05:15:30.032Z,78.20
2019-02-26T05:17:59.381Z,78.52
2019-02-26T05:20:31.444Z,78.55
2019-02-26T05:23:03.094Z,78.46
2019-02-26T05:25:35.130Z,78.50
2019-02-26T05:28:09.508Z,78.56
2019-02-26T05:30:40.443Z,78.61
2019-02-26T05:33:10.746Z,78.81
2019-02-26T05:35:43.792Z,78.84
2019-02-26T05:38:13.349Z,78.99
2019-02-26T05:40:45.203Z,79.00
2019-02-26T05:43:15.931Z,79.05
2019-02-26T05:45:48.443Z,79.12
2019-02-26T05:48:21.255Z,79.05
2019-02-26T05:50:52.506Z,79.11
2019-02-26T05:53:23.311Z,79.02
2019-02-26T05:55:55.974Z,78.96
2019-02-26T05:58:25.843Z,78.97
2019-02-26T06:00:56.347Z,78.96
2019-02-26T06:03:27.607Z,78.82
2019-02-26T06:06:00.333Z,78.79
2019-02-26T06:08:33.664Z,78.75
2019-02-26T06:11:02.486Z,78.73
2019-02-26T06:13:35.487Z,78.79
2019-02-26T06:16:07.449Z,78.82
2019-02-26T06:18:41.181Z,78.67
2019-02-26T06:21:09.542Z,78.72
2019-02-26T06:23:40.066Z,78.55
2019-02-26T06:26:14.091Z,78.37
2019-02-26T06:28:43.552Z,78.44
2019-02-26T06:31:17.404Z,78.48
2019-02-26T06:33:48.076Z,78.46
2019-02-26T06:36:21.040Z,78.28
2019-02-26T06:38:53.734Z,78.44
2019-02-26T06:41:22.956Z,78.33
2019-02-26T06:43:55.098Z,78.34
2019-02-26T06:46:27.121Z,78.21
2019-02-26T06:48:57.917Z,78.08
2019-02-26T06:51:30.628Z,77.99
2019-02-26T06:54:01.165Z,77.91
2019-02-26T06:56:34.464Z,77.79
2019-02-26T06:59:09.916Z,77.94
2019-02-26T07:01:42.024Z,77.76
2019-02-26T07:04:14.284Z,77.72
2019-02-26T07:06:44.724Z,77.60
2019-02-26T07:09:16.386Z,77.27
2019-02-26T07:11:47.403Z,77.17
2019-02-26T07:14:17.808Z,77.03
2019-02-26T07:16:48.312Z,76.90
2019-02-26T07:19:18.780Z,76.53
2019-02-26T07:21:51.302Z,76.64
2019-02-26T07:24:23.032Z,76.88
2019-02-26T07:26:53.499Z,76.82
2019-02-26T07:29:23.979Z,76.57
2019-02-26T07:31:56.558Z,76.35
2019-02-26T07:34:27.359Z,76.38
2019-02-26T07:36:57.857Z,76.43
2019-02-26T07:39:29.404Z,76.40
2019-02-26T07:41:59.898Z,76.09
2019-02-26T07:44:30.443Z,76.32
2019-02-26T07:47:03.685Z,76.32
2019-02-26T07:49:33.044Z,76.29
2019-02-26T07:52:05.962Z,76.26
2019-02-26T07:54:37.758Z,76.09
2019-02-26T07:57:07.878Z,75.64
2019-02-26T07:59:39.886Z,75.28
2019-02-26T08:02:11.371Z,75.17
2019-02-26T08:04:43.618Z,74.39
2019-02-26T08:07:14.215Z,74.16
2019-02-26T08:09:45.668Z,73.88
2019-02-26T08:12:16.161Z,73.74
2019-02-26T08:14:47.751Z,73.76
2019-02-26T08:17:18.683Z,73.11
2019-02-26T08:19:49.405Z,72.78
2019-02-26T08:22:19.971Z,73.26
2019-02-26T08:24:52.701Z,72.73
2019-02-26T08:27:22.651Z,72.37
2019-02-26T08:29:54.722Z,72.06
2019-02-26T08:32:26.214Z,71.55
2019-02-26T08:34:59.968Z,72.02
2019-02-26T08:37:30.789Z,71.11
2019-02-26T08:40:01.329Z,70.96
2019-02-26T08:42:31.818Z,71.15
2019-02-26T08:45:02.287Z,71.05
2019-02-26T08:47:33.386Z,71.22
2019-02-26T08:50:07.224Z,69.97
2019-02-26T08:52:37.806Z,70.06
2019-02-26T08:55:11.170Z,68.78
2019-02-26T09:00:25.573Z,66.94
2019-02-26T09:02:56.794Z,67.01
2019-02-26T09:05:29.240Z,67.36
2019-02-26T09:07:59.604Z,67.33
2019-02-26T09:10:30.039Z,67.04
2019-02-26T09:13:00.536Z,66.08
2019-02-26T09:15:33.217Z,65.66
2019-02-26T09:18:03.214Z,65.27
2019-02-26T09:20:33.655Z,65.40
2019-02-26T09:23:04.083Z,64.05
2019-02-26T09:25:34.531Z,65.47
2019-02-26T09:28:04.952Z,66.38
2019-02-26T09:30:36.469Z,66.45
2019-02-26T09:33:09.079Z,64.85
2019-02-26T09:35:39.843Z,63.83
2019-02-26T09:38:12.219Z,63.35
2019-02-26T09:40:42.516Z,63.47
2019-02-26T09:43:14.906Z,63.59
2019-02-26T09:45:45.861Z,63.94
2019-02-26T09:48:19.276Z,64.01
2019-02-26T09:50:49.397Z,65.31
2019-02-26T09:53:19.743Z,65.14
2019-02-26T09:55:50.207Z,64.70
2019-02-26T09:58:22.904Z,64.42
2019-02-26T10:00:54.193Z,64.71
2019-02-26T10:03:24.635Z,64.75
2019-02-26T10:05:56.060Z,65.03
2019-02-26T10:08:29.888Z,65.44
2019-02-26T10:11:00.221Z,65.00
2019-02-26T10:13:31.633Z,65.25
2019-02-26T10:16:04.497Z,65.70
2019-02-26T10:18:35.251Z,65.71
2019-02-26T10:21:08.523Z,64.11
2019-02-26T10:23:37.835Z,63.66
2019-02-26T10:26:10.569Z,63.29
2019-02-26T10:28:42.652Z,63.69
2019-02-26T10:31:12.619Z,63.14
2019-02-26T10:33:45.773Z,63.42
2019-02-26T10:36:16.641Z,63.55
2019-02-26T10:38:47.636Z,63.24
2019-02-26T10:41:18.185Z,63.92
2019-02-26T10:43:48.601Z,64.98
2019-02-26T10:46:19.073Z,65.02
2019-02-26T10:48:50.363Z,64.37
2019-02-26T10:51:26.035Z,64.93
2019-02-26T10:53:53.833Z,65.29
2019-02-26T10:56:28.000Z,66.08
2019-02-26T10:59:01.978Z,66.48
2019-02-26T11:01:30.787Z,65.29
2019-02-26T11:04:00.762Z,64.80
2019-02-26T11:06:33.719Z,65.35
2019-02-26T11:09:04.394Z,64.68
2019-02-26T11:11:38.059Z,64.49
2019-02-26T11:14:10.634Z,64.11
2019-02-26T11:16:40.739Z,63.29
2019-02-26T11:19:12.355Z,62.50
2019-02-26T11:21:42.985Z,60.98
2019-02-26T11:24:13.416Z,60.27
2019-02-26T11:26:44.053Z,60.27
2019-02-26T11:29:14.492Z,60.10
2019-02-26T11:31:47.308Z,59.33
2019-02-26T11:34:17.193Z,59.75
2019-02-26T11:36:47.722Z,59.47
2019-02-26T11:39:18.225Z,58.26
2019-02-26T11:41:53.055Z,56.06
2019-02-26T11:44:23.399Z,55.35
2019-02-26T11:46:54.262Z,56.83
2019-02-26T11:49:25.386Z,57.37
2019-02-26T11:51:55.952Z,57.73
2019-02-26T11:54:26.384Z,57.52
2019-02-26T11:56:57.253Z,57.15
2019-02-26T11:59:27.685Z,57.08
2019-02-26T12:01:59.139Z,58.34
2019-02-26T12:04:30.283Z,58.09
2019-02-26T12:07:03.936Z,57.10
2019-02-26T12:09:35.679Z,56.96
2019-02-26T12:12:08.545Z,57.86
2019-02-26T12:14:42.693Z,57.43
2019-02-26T12:17:10.295Z,56.13
2019-02-26T12:19:41.865Z,56.09
2019-02-26T12:22:12.335Z,55.64
2019-02-26T12:24:42.760Z,55.72
2019-02-26T12:27:17.981Z,55.59
2019-02-26T12:29:47.836Z,55.79
2019-02-26T12:32:19.504Z,54.25
2019-02-26T12:34:51.452Z,54.71
2019-02-26T12:37:22.016Z,54.29
2019-02-26T12:39:54.894Z,51.31
2019-02-26T12:42:25.610Z,50.88
2019-02-26T12:44:57.430Z,48.64
2019-02-26T12:47:28.104Z,43.20
2019-02-26T12:50:01.144Z,41.36
2019-02-26T12:52:30.866Z,37.35
2019-02-26T12:55:04.148Z,37.12
2019-02-26T12:57:33.548Z,38.66
2019-02-26T13:00:08.043Z,37.81
2019-02-26T13:02:39.987Z,39.35
2019-02-26T13:05:13.311Z,39.17
2019-02-26T13:07:43.968Z,40.34
2019-02-26T13:10:22.379Z,38.08
2019-02-26T13:12:54.989Z,35.03
2019-02-26T13:15:25.078Z,38.69
2019-02-26T13:17:55.547Z,37.62
2019-02-26T13:20:27.195Z,36.81
2019-02-26T13:23:16.228Z,37.31
2019-02-26T13:25:29.866Z,39.47
2019-02-26T13:28:00.333Z,40.23
2019-02-26T13:30:30.764Z,42.11
2019-02-26T13:33:05.169Z,42.24
2019-02-26T13:35:33.782Z,42.46
2019-02-26T13:38:05.349Z,42.61
2019-02-26T13:40:38.706Z,43.48
2019-02-26T13:43:08.386Z,42.69
2019-02-26T13:45:39.942Z,41.74
2019-02-26T13:48:10.733Z,42.17
2019-02-26T13:50:41.366Z,42.63
2019-02-26T13:53:11.917Z,42.46
2019-02-26T13:55:42.344Z,43.80
2019-02-26T13:58:13.265Z,44.25
2019-02-26T14:00:43.687Z,44.44
2019-02-26T14:03:14.232Z,44.19
2019-02-26T14:05:44.732Z,44.29
2019-02-26T14:08:15.268Z,44.58
2019-02-26T14:10:45.689Z,44.10
2019-02-26T14:13:16.246Z,44.49
2019-02-26T14:15:46.809Z,46.06
2019-02-26T14:18:17.272Z,46.15
2019-02-26T14:20:47.710Z,46.15
2019-02-26T14:23:18.176Z,46.53
2019-02-26T14:25:48.791Z,47.29
2019-02-26T14:28:19.249Z,47.63
2019-02-26T14:30:49.680Z,47.96
2019-02-26T14:33:20.150Z,48.68
2019-02-26T14:35:51.980Z,48.81
2019-02-26T14:38:22.527Z,49.46
2019-02-26T14:40:53.028Z,49.79
2019-02-26T14:43:23.466Z,49.68
2019-02-26T14:45:53.904Z,49.43
2019-02-26T14:48:24.483Z,49.80
2019-02-26T14:50:54.977Z,49.89
2019-02-26T14:53:25.391Z,50.03
2019-02-26T14:55:55.893Z,50.37
2019-02-26T14:58:26.749Z,50.98
2019-02-26T15:00:58.267Z,51.52
2019-02-26T15:03:29.346Z,52.03
2019-02-26T15:05:59.773Z,52.19
2019-02-26T15:08:30.322Z,52.92
2019-02-26T15:11:00.750Z,53.67
2019-02-26T15:13:31.226Z,53.93
2019-02-26T15:16:01.676Z,54.33
2019-02-26T15:18:32.417Z,54.94
2019-02-26T15:21:02.840Z,55.08
2019-02-26T15:23:33.265Z,55.44
2019-02-26T15:26:03.627Z,55.35
2019-02-26T15:28:35.185Z,55.74
2019-02-26T15:31:05.609Z,56.10
2019-02-26T15:33:36.083Z,56.44
2019-02-26T15:36:06.520Z,56.73
2019-02-26T15:38:37.153Z,56.85
2019-02-26T15:41:07.759Z,57.28
2019-02-26T15:43:38.231Z,57.42
2019-02-26T15:46:08.658Z,57.48
2019-02-26T15:48:39.123Z,58.00
2019-02-26T15:51:14.292Z,58.74
2019-02-26T15:53:41.644Z,59.42
2019-02-26T15:56:12.269Z,60.24
2019-02-26T15:58:42.670Z,61.04
2019-02-26T16:01:18.908Z,61.52
2019-02-26T16:03:51.260Z,62.14
2019-02-26T16:06:21.683Z,63.85
2019-02-26T16:08:52.162Z,65.23
2019-02-26T16:11:22.647Z,65.67
2019-02-26T16:13:53.113Z,65.60
2019-02-26T16:16:23.607Z,65.81
2019-02-26T16:18:54.609Z,65.96
2019-02-26T16:21:25.653Z,65.93
2019-02-26T16:23:56.428Z,65.93
2019-02-26T16:26:26.851Z,66.08
2019-02-26T16:29:00.820Z,65.97
2019-02-26T16:31:30.026Z,66.21
2019-02-26T16:34:01.017Z,66.10
2019-02-26T16:36:32.249Z,66.14
2019-02-26T16:39:03.207Z,66.68
2019-02-26T16:41:38.052Z,66.74
2019-02-26T16:44:07.380Z,66.91
2019-02-26T16:46:42.712Z,67.13
2019-02-26T16:49:13.490Z,66.70
2019-02-26T16:51:44.234Z,67.24
2019-02-26T16:54:15.088Z,67.41
2019-02-26T16:56:45.587Z,67.44
2019-02-26T16:59:16.129Z,67.60
2019-02-26T17:01:46.626Z,67.99
2019-02-26T17:04:17.231Z,68.14
2019-02-26T17:06:47.730Z,68.41
2019-02-26T17:09:19.018Z,68.57
2019-02-26T17:11:50.481Z,68.68
2019-02-26T17:14:21.784Z,69.17
2019-02-26T17:16:52.300Z,69.43
2019-02-26T17:19:22.832Z,69.32
2019-02-26T17:21:53.698Z,68.98
2019-02-26T17:24:24.231Z,69.31
2019-02-26T17:26:54.668Z,69.65
2019-02-26T17:29:25.136Z,69.69
2019-02-26T17:31:55.630Z,69.78
2019-02-26T17:34:27.092Z,70.02
2019-02-26T17:36:57.650Z,69.81
2019-02-26T17:39:28.734Z,70.31
2019-02-26T17:41:59.260Z,70.55
2019-02-26T17:44:29.789Z,70.79
2019-02-26T17:47:00.145Z,70.84
2019-02-26T17:49:30.611Z,71.09
2019-02-26T17:52:01.279Z,71.34
2019-02-26T17:54:31.831Z,71.95
2019-02-26T17:57:02.255Z,71.97
2019-02-26T17:59:32.897Z,72.34
2019-02-26T18:02:03.320Z,72.33
2019-02-26T18:04:33.853Z,72.58
2019-02-26T18:07:04.207Z,72.89
2019-02-26T18:09:35.103Z,73.32
2019-02-26T18:12:05.626Z,73.42
2019-02-26T18:14:38.537Z,73.50
2019-02-26T18:17:08.219Z,73.65
2019-02-26T18:19:38.684Z,74.10
2019-02-26T18:22:09.101Z,74.62
2019-02-26T18:24:39.635Z,74.94
2019-02-26T18:27:10.085Z,75.16
2019-02-26T18:29:40.543Z,75.45
2019-02-26T18:32:11.248Z,75.58
2019-02-26T18:34:42.159Z,75.93
2019-02-26T18:37:12.775Z,75.98
2019-02-26T18:39:50.005Z,76.27
2019-02-26T18:42:30.073Z,76.43
2019-02-26T18:45:00.619Z,76.49
2019-02-26T18:47:32.639Z,76.36
2019-02-26T18:50:03.106Z,76.44
2019-02-26T18:52:33.597Z,76.59
2019-02-26T18:55:05.818Z,76.76
2019-02-26T18:57:36.533Z,76.98
2019-02-26T19:00:10.233Z,77.12
2019-02-26T19:02:42.530Z,77.62
2019-02-26T19:05:13.611Z,77.81
2019-02-26T19:07:44.172Z,77.78
2019-02-26T19:10:19.421Z,78.07
2019-02-26T19:12:48.612Z,78.47
2019-02-26T19:15:21.060Z,78.32
2019-02-26T19:17:53.604Z,78.74
2019-02-26T19:20:30.215Z,78.71
2019-02-26T19:23:02.088Z,78.92
2019-02-26T19:25:32.850Z,79.08
2019-02-26T19:28:03.364Z,79.13
2019-02-26T19:30:36.697Z,79.42
2019-02-26T19:33:06.357Z,79.73
2019-02-26T19:35:40.315Z,79.63
2019-02-26T19:38:08.996Z,79.99
2019-02-26T19:40:43.514Z,80.34
2019-02-26T19:43:13.926Z,80.31
2019-02-26T19:45:44.971Z,80.63
2019-02-26T19:48:15.858Z,80.47
2019-02-26T19:50:48.649Z,80.69
2019-02-26T19:53:18.384Z,80.55
2019-02-26T19:55:50.078Z,80.51
2019-02-26T19:58:20.580Z,80.40
2019-02-26T20:00:52.998Z,79.93
2019-02-26T20:03:23.327Z,79.82
2019-02-26T20:05:53.728Z,79.77
2019-02-26T20:08:24.303Z,79.35
2019-02-26T20:10:54.830Z,79.20
2019-02-26T20:13:25.418Z,79.23
2019-02-26T20:15:56.020Z,79.11
2019-02-26T20:18:26.738Z,79.29
2019-02-26T20:20:58.737Z,79.58
2019-02-26T20:23:29.373Z,79.32
2019-02-26T20:25:59.920Z,79.16
2019-02-26T20:28:30.354Z,79.58
2019-02-26T20:31:00.837Z,79.54
2019-02-26T20:33:31.347Z,79.73
2019-02-26T20:36:02.180Z,79.46
2019-02-26T20:38:35.208Z,79.36
2019-02-26T20:41:04.968Z,78.79
2019-02-26T20:43:36.927Z,78.56
2019-02-26T20:46:07.940Z,78.37
2019-02-26T20:48:38.456Z,78.32
2019-02-26T20:51:08.920Z,78.46
2019-02-26T20:53:39.762Z,78.35
2019-02-26T20:56:10.232Z,78.09
2019-02-26T20:58:44.657Z,77.94
2019-02-26T21:01:12.974Z,77.85
2019-02-26T21:03:43.468Z,77.53
2019-02-26T21:06:15.600Z,77.18
2019-02-26T21:08:46.287Z,77.15
2019-02-26T21:11:16.713Z,77.49
2019-02-26T21:13:47.241Z,77.68
2019-02-26T21:16:18.639Z,77.88
2019-02-26T21:18:50.082Z,77.98
2019-02-26T21:21:38.896Z,77.94
2019-02-26T21:24:11.845Z,77.63
2019-02-26T21:26:43.764Z,77.86
2019-02-26T21:29:15.722Z,77.55
2019-02-26T21:31:49.712Z,77.32
2019-02-26T21:34:21.215Z,77.68
2019-02-26T21:36:53.116Z,77.77
2019-02-26T21:39:24.995Z,77.89
2019-02-26T21:41:56.903Z,78.28
2019-02-26T21:44:28.766Z,78.46
2019-02-26T21:47:00.741Z,78.82
2019-02-26T21:49:32.680Z,78.80
2019-02-26T21:52:08.697Z,79.05
2019-02-26T21:54:40.245Z,78.99
2019-02-26T21:57:12.280Z,78.97
2019-02-26T21:59:50.032Z,79.07
2019-02-26T22:02:18.870Z,79.27
2019-02-26T22:04:49.953Z,78.89
2019-02-26T22:07:20.487Z,78.98
2019-02-26T22:09:50.903Z,79.57
2019-02-26T22:12:21.877Z,79.07
2019-02-26T22:14:54.570Z,80.23
2019-02-26T22:17:25.823Z,79.67
2019-02-26T22:19:56.419Z,79.97
2019-02-26T22:22:27.138Z,80.35
2019-02-26T22:24:57.948Z,80.16
2019-02-26T22:27:28.456Z,80.00
2019-02-26T22:29:58.913Z,80.66
2019-02-26T22:32:29.629Z,80.44
2019-02-26T22:35:00.214Z,81.14
2019-02-26T22:37:30.694Z,80.51
2019-02-26T22:40:01.236Z,80.55
2019-02-26T22:42:33.448Z,81.93
2019-02-26T22:45:04.816Z,81.25
2019-02-26T22:47:40.101Z,82.03
2019-02-26T22:50:11.295Z,82.30
2019-02-26T22:52:42.026Z,81.79
2019-02-26T22:55:17.299Z,80.83
2019-02-26T22:57:48.167Z,80.32
2019-02-26T23:00:49.663Z,81.52
2019-02-26T23:03:21.753Z,82.79
2019-02-26T23:05:52.272Z,82.73
2019-02-26T23:08:22.964Z,82.35
2019-02-26T23:10:56.843Z,80.67
2019-02-26T23:13:25.814Z,81.19
2019-02-26T23:15:56.387Z,82.13
2019-02-26T23:18:28.443Z,82.08
2019-02-26T23:20:59.145Z,82.94
2019-02-26T23:23:29.673Z,83.37
2019-02-26T23:26:01.163Z,82.35
2019-02-26T23:28:31.833Z,82.19
2019-02-26T23:31:02.418Z,82.58
2019-02-26T23:33:32.876Z,82.53
2019-02-26T23:36:03.512Z,81.57
2019-02-26T23:38:34.055Z,82.51
2019-02-26T23:41:04.632Z,82.00
2019-02-26T23:43:35.152Z,81.83
2019-02-26T23:46:05.646Z,81.11
2019-02-26T23:48:36.173Z,81.62
2019-02-26T23:51:06.681Z,81.24
2019-02-26T23:53:38.320Z,80.96
2019-02-26T23:56:08.829Z,81.60
2019-02-26T23:58:39.292Z,80.80
